Data for 05/24/2007

Time Sea-Level Adjusted Pressure Absolute Pressure Temperature Relative Humidity Dew Point   
(mb) (inHg) (mb) (inHg) (C) (F) (%) (C) (F)
00:05 1021 30.15 850 25.1 2.6 36.6 80 -0.5 31.2
00:10 1021 30.15 850 25.1 2.7 36.8 80 -0.4 31.3
00:15 1021 30.15 850 25.1 2.7 36.9 80 -0.4 31.2
00:20 1021 30.15 850 25.1 2.8 37 79 -0.5 31.1
00:25 1021 30.15 850 25.1 2.7 36.8 82 -0.2 31.7
00:30 1021 30.15 850 25.1 2.5 36.6 82 -0.3 31.5
00:35 1021 30.15 850 25.1 2.4 36.4 81 -0.4 31.2
00:40 1021 30.15 850 25.1 2.4 36.4 81 -0.5 31
00:45 1020 30.12 850 25.1 2.4 36.3 80 -0.7 30.8
00:50 1020 30.12 850 25.1 2.4 36.3 81 -0.5 31.2
00:55 1020 30.12 850 25.1 2.4 36.3 81 -0.6 30.8
01:00 1020 30.12 850 25.1 2.5 36.5 80 -0.6 30.9
01:05 1020 30.12 850 25.1 2.5 36.5 80 -0.6 30.9
01:10 1020 30.12 850 25.1 2.5 36.5 81 -0.5 31.1
01:15 1020 30.12 850 25.1 2.3 36.2 82 -0.4 31.3
01:20 1020 30.12 850 25.1 2.2 35.9 82 -0.5 31
01:25 1020 30.12 850 25.1 2 35.5 83 -0.6 30.9
01:30 1020 30.12 849 25.07 1.8 35.3 83 -0.7 30.7
01:35 1020 30.12 849 25.07 1.8 35.2 82 -0.9 30.3
01:40 1020 30.12 849 25.07 1.9 35.5 81 -1 30.2
01:45 1020 30.12 849 25.07 2.1 35.8 80 -1 30.1
01:50 1020 30.12 849 25.07 2.1 35.7 81 -0.9 30.4
01:55 1020 30.12 849 25.07 2 35.6 81 -1 30.2
02:00 1020 30.12 849 25.07 2.1 35.8 79 -1.1 30
02:05 1020 30.12 849 25.07 2.4 36.4 78 -1.1 30
02:10 1020 30.12 849 25.07 2.4 36.3 79 -1 30.3
02:15 1020 30.12 849 25.07 2.2 36 79 -1.1 30
02:20 1020 30.12 849 25.07 2.3 36.1 78 -1.1 30.1
02:25 1020 30.12 849 25.07 2.3 36.2 78 -1.1 30.1
02:30 1020 30.12 849 25.07 2.3 36.1 79 -1 30.2
02:35 1020 30.12 849 25.07 2.1 35.8 79 -1.1 30.1
02:40 1020 30.12 849 25.07 2.1 35.7 80 -1.1 30.1
02:45 1020 30.12 849 25.07 2.1 35.7 80 -1.1 30
02:50 1020 30.12 849 25.07 2.1 35.8 79 -1.2 29.8
02:55 1020 30.12 849 25.07 2.2 35.9 78 -1.3 29.7
03:00 1020 30.12 849 25.07 2.3 36.1 78 -1.2 29.8
03:05 1020 30.12 849 25.07 2.3 36.1 78 -1.2 29.8
03:10 1020 30.12 849 25.07 2.2 36 78 -1.2 29.9
03:15 1020 30.12 849 25.07 2.1 35.9 78 -1.3 29.7
03:20 1020 30.12 849 25.07 2.2 35.9 78 -1.3 29.7
03:25 1020 30.12 849 25.07 2.2 35.9 78 -1.3 29.7
03:30 1020 30.12 849 25.07 2.1 35.9 79 -1.2 29.9
03:35 1020 30.12 849 25.07 1.9 35.3 80 -1.3 29.7
03:40 1020 30.12 849 25.07 1.6 34.8 80 -1.6 29.1
03:45 1020 30.12 849 25.07 1.6 34.9 79 -1.6 29.1
03:50 1020 30.12 849 25.07 1.6 34.9 80 -1.4 29.4
03:55 1020 30.12 849 25.07 1.4 34.6 81 -1.5 29.3
04:00 1020 30.12 849 25.07 1.4 34.5 81 -1.5 29.3
04:05 1020 30.12 849 25.07 1.2 34.2 82 -1.5 29.3
04:10 1020 30.12 849 25.07 1.3 34.3 81 -1.6 29.2
04:15 1020 30.12 849 25.07 1.4 34.6 80 -1.6 29.1
04:20 1020 30.12 849 25.07 1.7 35 79 -1.6 29.1
04:25 1020 30.12 849 25.07 1.7 35.1 78 -1.6 29
04:30 1020 30.12 849 25.07 1.7 35.1 78 -1.6 29
04:35 1020 30.12 849 25.07 1.7 35 79 -1.6 29.1
04:40 1020 30.12 849 25.07 1.6 34.9 79 -1.7 28.9
04:45 1020 30.12 849 25.07 1.7 35 78 -1.7 28.9
04:50 1020 30.12 849 25.07 1.5 34.7 80 -1.6 29.1
04:55 1020 30.12 849 25.07 1.3 34.3 81 -1.7 28.9
05:00 1020 30.12 849 25.07 1.2 34.2 81 -1.7 28.9
05:05 1020 30.12 849 25.07 1.3 34.3 79 -1.9 28.5
05:10 1020 30.12 849 25.07 1.5 34.7 78 -1.9 28.5
05:15 1020 30.12 849 25.07 1.9 35.3 75 -2 28.3
05:20 1020 30.12 849 25.07 2.3 36.1 74 -1.9 28.7
05:25 1020 30.12 849 25.07 2.3 36.1 74 -1.8 28.7
05:30 1020 30.12 849 25.07 2.4 36.3 72 -2.1 28.2
05:35 1020 30.12 849 25.07 2.6 36.7 72 -2 28.5
05:40 1020 30.12 849 25.07 2.6 36.6 73 -1.8 28.7
05:45 1019 30.09 849 25.07 2.2 36 74 -1.8 28.7
05:50 1019 30.09 849 25.07 1.9 35.5 75 -2 28.4
05:55 1019 30.09 849 25.07 1.4 34.4 79 -1.8 28.7
06:00 1019 30.09 849 25.07 0.8 33.4 82 -2 28.4
06:05 1019 30.09 848 25.04 0.8 33.4 81 -2.1 28.2
06:10 1019 30.09 848 25.04 1 33.9 79 -2.2 28.1
06:15 1019 30.09 848 25.04 1.3 34.4 78 -2.1 28.3
06:20 1019 30.09 848 25.04 1.4 34.6 78 -2 28.4
06:25 1019 30.09 848 25.04 1.6 34.9 77 -2 28.4
06:30 1019 30.09 848 25.04 2 35.6 74 -2.1 28.2
06:35 1019 30.09 848 25.04 2.3 36.1 73 -2 28.4
06:40 1019 30.09 848 25.04 2.4 36.3 74 -1.8 28.7
06:45 1019 30.09 848 25.04 2.4 36.3 73 -1.9 28.7
06:50 1019 30.09 848 25.04 2.6 36.6 72 -1.9 28.5
06:55 1019 30.09 848 25.04 3 37.5 70 -1.8 28.7
07:00 1019 30.09 849 25.07 3.4 38.1 67 -2.2 28
07:05 1019 30.09 849 25.07 3.4 38.2 68 -2 28.4
07:10 1019 30.09 849 25.07 3.4 38.1 68 -2 28.5
07:15 1019 30.09 849 25.07 3.4 38.1 68 -1.9 28.5
07:20 1019 30.09 848 25.04 3.4 38.1 70 -1.6 29
07:25 1019 30.09 849 25.07 3.5 38.3 70 -1.5 29.2
07:30 1019 30.09 849 25.07 3.5 38.3 70 -1.4 29.5
07:35 1019 30.09 849 25.07 3.7 38.7 68 -1.6 29.1
07:40 1019 30.09 849 25.07 4.1 39.5 66 -1.7 29
07:45 1019 30.09 849 25.07 4.7 40.4 63 -1.7 28.9
07:50 1019 30.09 849 25.07 5.8 42.4 59 -1.5 29.2
07:55 1019 30.09 848 25.04 6 42.8 60 -1.2 29.8
08:00 1019 30.09 848 25.04 5.7 42.2 61 -1.2 29.8
08:05 1019 30.09 848 25.04 5.5 41.9 63 -1.1 30.1
08:10 1019 30.09 848 25.04 5.4 41.7 68 -0 32
08:15 1019 30.09 848 25.04 5.2 41.3 69 0 32
08:20 1019 30.09 848 25.04 5.2 41.4 70 0.2 32.3
08:25 1019 30.09 848 25.04 5.6 42 66 -0.3 31.5
08:30 1019 30.09 848 25.04 5.8 42.4 65 -0.3 31.5
08:35 1019 30.09 849 25.07 5.9 42.7 64 -0.2 31.6
08:40 1019 30.09 848 25.04 6.1 42.9 64 -0.1 31.8
08:45 1019 30.09 848 25.04 6.5 43.6 62 -0.3 31.5
08:50 1019 30.09 848 25.04 7.3 45.1 57 -0.7 30.7
08:55 1019 30.09 848 25.04 8.2 46.8 51 -1.4 29.4
09:00 1019 30.09 848 25.04 8.4 47.2 52 -0.9 30.4
09:05 1019 30.09 848 25.04 8.5 47.3 49 -1.5 29.3
09:10 1019 30.09 848 25.04 8.7 47.7 48 -1.7 28.9
09:15 1019 30.09 848 25.04 9.2 48.5 45 -2 28.5
09:20 1019 30.09 848 25.04 9.3 48.7 49 -1 30.3
09:25 1019 30.09 848 25.04 8.9 48.1 52 -0.4 31.2
09:30 1019 30.09 848 25.04 8.7 47.7 55 0.1 32.2
09:35 1019 30.09 848 25.04 8.9 48 55 0.3 32.5
09:40 1019 30.09 848 25.04 9.1 48.5 55 0.5 32.9
09:45 1019 30.09 848 25.04 9 48.1 54 0.1 32.2
09:50 1019 30.09 848 25.04 9.1 48.3 53 0.1 32.1
09:55 1019 30.09 848 25.04 9.5 49.1 51 0 32
10:00 1019 30.09 848 25.04 10.2 50.3 48 -0.4 31.4
10:05 1019 30.09 848 25.04 10.7 51.3 46 -0.4 31.3
10:10 1019 30.09 848 25.04 11.3 52.3 43 -0.7 30.7
10:15 1019 30.09 848 25.04 10.8 51.5 47 -0 32
10:20 1019 30.09 848 25.04 11.1 51.9 42 -1.2 29.8
10:25 1019 30.09 848 25.04 11.4 52.5 42 -1 30.2
10:30 1019 30.09 848 25.04 12.2 54 40 -0.9 30.4
10:35 1019 30.09 848 25.04 12.6 54.7 40 -0.7 30.7
10:40 1019 30.09 848 25.04 13 55.4 38 -1 30.2
10:45 1019 30.09 848 25.04 12.5 54.5 40 -0.6 30.9
10:50 1019 30.09 848 25.04 12 53.5 43 -0.2 31.6
10:55 1019 30.09 848 25.04 11.3 52.4 44 -0.5 31.1
11:00 1019 30.09 848 25.04 11.2 52.1 46 0.1 32.2
11:05 1019 30.09 848 25.04 10.5 50.9 47 -0.2 31.6
11:10 1019 30.09 848 25.04 10.3 50.5 53 1.2 34.2
11:15 1019 30.09 848 25.04 10 50 55 1.5 34.8
11:20 1019 30.09 848 25.04 10 49.9 55 1.5 34.6
11:25 1019 30.09 848 25.04 10.1 50.2 57 2 35.7
11:30 1019 30.09 848 25.04 10.3 50.5 54 1.5 34.8
11:35 1019 30.09 848 25.04 10.7 51.2 52 1.3 34.4
11:40 1019 30.09 848 25.04 10.5 50.8 52 1 33.8
11:45 1019 30.09 848 25.04 10.9 51.7 48 0.5 33
11:50 1019 30.09 848 25.04 11.8 53.3 45 0.5 32.8
11:55 1018 30.06 848 25.04 12.7 54.8 45 1.2 34.2
12:00 1018 30.06 848 25.04 12.4 54.3 45 0.8 33.5
12:05 1018 30.06 848 25.04 12.4 54.4 45 1 33.8
12:10 1018 30.06 848 25.04 13.2 55.7 43 1.1 33.9
12:15 1018 30.06 848 25.04 13.4 56.2 43 1.3 34.4
12:20 1018 30.06 847 25.01 12.4 54.2 45 0.8 33.5
12:25 1018 30.06 847 25.01 11.7 53 48 1.1 33.9
12:30 1018 30.06 847 25.01 11.5 52.7 47 0.5 33
12:35 1018 30.06 847 25.01 12.1 53.7 45 0.6 33
12:40 1018 30.06 847 25.01 12.2 54 46 0.9 33.6
12:45 1018 30.06 847 25.01 11.8 53.2 48 1 33.8
12:50 1018 30.06 847 25.01 11.8 53.3 45 0.4 32.7
12:55 1018 30.06 847 25.01 11.9 53.5 57 3.7 38.7
13:00 1018 30.06 847 25.01 8.8 47.9 70 3.7 38.7
13:05 1018 30.06 847 25.01 7.9 46.2 70 2.7 36.9
13:10 1018 30.06 847 25.01 7.8 46 67 2.2 35.9
13:15 1018 30.06 847 25.01 7.7 45.9 70 2.6 36.7
13:20 1018 30.06 847 25.01 7.7 45.8 68 2.3 36.1
13:25 1018 30.06 847 25.01 7.7 45.9 70 2.5 36.6
13:30 1018 30.06 847 25.01 7.9 46.2 66 2 35.6
13:35 1018 30.06 847 25.01 8.3 46.9 67 2.5 36.5
13:40 1018 30.06 847 25.01 8.3 46.9 69 2.9 37.3
13:45 1018 30.06 847 25.01 8.7 47.6 70 3.5 38.3
13:50 1018 30.06 847 25.01 9.6 49.3 64 3.2 37.8
13:55 1018 30.06 847 25.01 10.5 50.9 58 2.5 36.6
14:00 1018 30.06 847 25.01 11.7 53 53 2.6 36.6
14:05 1018 30.06 847 25.01 11.3 52.3 56 2.9 37.2
14:10 1018 30.06 847 25.01 11.4 52.5 53 2.3 36.2
14:15 1017 30.03 847 25.01 12.3 54.1 50 2.3 36.2
14:20 1017 30.03 847 25.01 12.3 54.2 50 2.3 36.2
14:25 1017 30.03 847 25.01 12.3 54.1 53 3 37.3
14:30 1017 30.03 847 25.01 11.9 53.4 50 1.9 35.5
14:35 1017 30.03 846 24.98 12 53.5 52 2.6 36.6
14:40 1017 30.03 846 24.98 12.4 54.4 51 2.6 36.7
14:45 1017 30.03 846 24.98 12.3 54.1 48 1.7 35.1
14:50 1017 30.03 846 24.98 12.7 54.9 49 2.4 36.2
14:55 1017 30.03 846 24.98 12.9 55.2 48 2.1 35.8
15:00 1017 30.03 846 24.98 13 55.4 48 2.4 36.2
15:05 1017 30.03 846 24.98 13.9 57 46 2.6 36.6
15:10 1017 30.03 846 24.98 13.9 57.1 49 3.5 38.2
15:15 1016 30 846 24.98 13.7 56.7 46 2.4 36.4
15:20 1016 30 846 24.98 13.7 56.7 44 1.7 35
15:25 1016 30 846 24.98 14.4 58 46 2.9 37.2
15:30 1016 30 846 24.98 14.2 57.6 44 2.3 36.2
15:35 1016 30 846 24.98 15.4 59.6 41 2.2 35.9
15:40 1016 30 845 24.95 15.6 60.1 40 2.3 36.2
15:45 1016 30 845 24.95 15.1 59.2 39 1.2 34.2
15:50 1016 30 845 24.95 14.4 58 39 0.8 33.4
15:55 1016 30 846 24.98 13.8 56.8 48 3 37.4
16:00 1016 30 846 24.98 13.2 55.7 51 3.3 38
16:05 1016 30 846 24.98 12.9 55.2 53 3.6 38.5
16:10 1016 30 846 24.98 12.2 53.9 57 3.9 39.1
16:15 1017 30.03 846 24.98 12.1 53.8 55 3.4 38.1
16:20 1017 30.03 846 24.98 12.2 53.9 55 3.3 38
16:25 1017 30.03 846 24.98 12.2 54 56 3.7 38.7
16:30 1017 30.03 846 24.98 12.2 53.9 55 3.4 38.2
16:35 1017 30.03 846 24.98 11.9 53.4 58 4.1 39.3
16:40 1017 30.03 846 24.98 11.8 53.3 61 4.6 40.3
16:45 1017 30.03 846 24.98 11.6 52.8 64 5.1 41.3
16:50 1017 30.03 846 24.98 11.2 52.1 62 4.2 39.6
16:55 1017 30.03 846 24.98 10.6 51.1 67 4.9 40.8
17:00 1017 30.03 846 24.98 10.9 51.6 62 3.9 39
17:05 1017 30.03 846 24.98 11.7 53 62 4.7 40.4
17:10 1017 30.03 846 24.98 12.3 54.2 59 4.6 40.4
17:15 1017 30.03 846 24.98 12.2 53.9 59 4.5 40.2
17:20 1017 30.03 846 24.98 11.7 53.1 64 5.1 41.3
17:25 1017 30.03 846 24.98 11.3 52.3 61 4.1 39.3
17:30 1017 30.03 846 24.98 11 51.7 63 4.3 39.7
17:35 1017 30.03 846 24.98 10.8 51.5 65 4.5 40
17:40 1017 30.03 846 24.98 10.8 51.4 67 4.9 40.8
17:45 1017 30.03 846 24.98 10.3 50.5 73 5.8 42.4
17:50 1017 30.03 847 25.01 9.3 48.7 78 5.7 42.3
17:55 1017 30.03 847 25.01 8.7 47.7 80 5.4 41.7
18:00 1018 30.06 847 25.01 8.5 47.3 82 5.6 42
18:05 1017 30.03 847 25.01 8.6 47.5 81 5.5 42
18:10 1017 30.03 847 25.01 8.2 46.8 83 5.5 41.9
18:15 1017 30.03 847 25.01 8 46.4 82 5.1 41.2
18:20 1017 30.03 847 25.01 8.1 46.5 82 5.2 41.3
18:25 1017 30.03 846 24.98 7.9 46.1 84 5.3 41.6
18:30 1017 30.03 846 24.98 7.8 46.1 81 4.8 40.6
18:35 1017 30.03 846 24.98 7.9 46.1 81 4.7 40.5
18:40 1017 30.03 846 24.98 8.2 46.8 83 5.5 41.8
18:45 1017 30.03 847 25.01 8.6 47.4 80 5.2 41.4
18:50 1018 30.06 847 25.01 8.6 47.4 81 5.5 41.9
18:55 1018 30.06 847 25.01 8.5 47.3 81 5.5 41.9
19:00 1018 30.06 847 25.01 8.5 47.4 83 5.9 42.6
19:05 1018 30.06 847 25.01 8.2 46.7 83 5.5 42
19:10 1018 30.06 847 25.01 8 46.4 84 5.4 41.8
19:15 1018 30.06 847 25.01 7.9 46.2 86 5.7 42.3
19:20 1017 30.03 847 25.01 8 46.4 85 5.7 42.2
19:25 1017 30.03 847 25.01 7.9 46.1 84 5.3 41.6
19:30 1017 30.03 847 25.01 7.8 46.1 86 5.7 42.2
19:35 1017 30.03 846 24.98 7.7 45.9 86 5.5 41.8
19:40 1017 30.03 846 24.98 7.7 45.9 85 5.3 41.5
19:45 1017 30.03 846 24.98 7.8 46 85 5.3 41.6
19:50 1017 30.03 846 24.98 7.8 46.1 84 5.3 41.6
19:55 1017 30.03 846 24.98 7.9 46.1 85 5.6 42
20:00 1017 30.03 846 24.98 7.8 46 88 5.8 42.5
20:05 1017 30.03 846 24.98 7.6 45.7 88 5.7 42.3
20:10 1017 30.03 846 24.98 7.4 45.2 88 5.5 41.9
20:15 1017 30.03 847 25.01 7.3 45.2 88 5.4 41.8
20:20 1017 30.03 847 25.01 7.5 45.4 87 5.5 41.9
20:25 1017 30.03 846 24.98 7.3 45.2 89 5.6 42.2
20:30 1017 30.03 846 24.98 7.1 44.8 91 5.7 42.3
20:35 1017 30.03 846 24.98 7 44.6 92 5.8 42.4
20:40 1017 30.03 846 24.98 7 44.6 90 5.5 41.8
20:45 1017 30.03 846 24.98 7 44.6 90 5.4 41.8
20:50 1016 30 846 24.98 7 44.5 91 5.5 42
20:55 1016 30 845 24.95 6.9 44.4 90 5.4 41.8
21:00 1016 30 845 24.95 6.8 44.2 92 5.6 42.1
21:05 1016 30 845 24.95 6.7 44.1 93 5.6 42.1
21:10 1016 30 845 24.95 6.7 44.1 92 5.5 41.8
21:15 1016 30 845 24.95 6.7 44.1 91 5.3 41.6
21:20 1016 30 846 24.98 6.7 44 89 5.1 41.1
21:25 1017 30.03 846 24.98 6.6 44 89 4.9 40.9
21:30 1017 30.03 846 24.98 6.6 43.9 89 5 40.9
21:35 1017 30.03 846 24.98 6.6 44 87 4.6 40.2
21:40 1017 30.03 846 24.98 6.8 44.2 86 4.7 40.4
21:45 1017 30.03 846 24.98 6.7 44 88 4.8 40.6
21:50 1017 30.03 846 24.98 6.6 43.8 87 4.6 40.3
21:55 1017 30.03 846 24.98 6.5 43.8 88 4.7 40.4
22:00 1017 30.03 846 24.98 6.5 43.7 89 4.9 40.8
22:05 1017 30.03 846 24.98 6.4 43.5 90 4.9 40.9
22:10 1017 30.03 846 24.98 6.2 43.2 91 4.9 40.8
22:15 1017 30.03 846 24.98 6.1 42.9 92 4.8 40.6
22:20 1017 30.03 846 24.98 5.9 42.7 92 4.8 40.7
22:25 1017 30.03 846 24.98 5.9 42.7 93 4.9 40.8
22:30 1017 30.03 846 24.98 5.8 42.5 93 4.8 40.7
22:35 1017 30.03 846 24.98 5.8 42.5 94 4.9 40.9
22:40 1017 30.03 846 24.98 5.9 42.5 95 5.1 41.1
22:45 1017 30.03 846 24.98 5.8 42.5 95 5 41.1
22:50 1017 30.03 846 24.98 5.8 42.4 95 5 41
22:55 1017 30.03 846 24.98 5.8 42.4 95 5 41.1
23:00 1017 30.03 846 24.98 5.8 42.4 95 5 41
23:05 1017 30.03 846 24.98 5.8 42.4 95 5 41
23:10 1017 30.03 846 24.98 5.7 42.3 94 4.9 40.8
23:15 1017 30.03 846 24.98 5.7 42.3 95 5 40.9
23:20 1017 30.03 846 24.98 5.7 42.2 95 5 41
23:25 1017 30.03 846 24.98 5.6 42.2 95 4.9 40.8
23:30 1016 30 846 24.98 5.5 42 94 4.6 40.4
23:35 1016 30 845 24.95 5.5 42 94 4.7 40.4
23:40 1016 30 845 24.95 5.5 41.8 94 4.6 40.2
23:45 1016 30 845 24.95 5.3 41.6 93 4.3 39.7
23:50 1016 30 845 24.95 5.3 41.5 91 4 39.2
23:55 1016 30 845 24.95 5.1 41.2 89 3.5 38.2
24:00 1016 30 845 24.95 4.9 40.8 90 3.4 38.1